createdAt,value
2018-07-17T00:00:34.523Z,17.10
2018-07-17T00:03:04.455Z,17.10
2018-07-17T00:05:35.373Z,17.00
2018-07-17T00:08:07.735Z,17.10
2018-07-17T00:10:36.795Z,17.10
2018-07-17T00:13:06.312Z,17.20
2018-07-17T00:15:36.048Z,17.30
2018-07-17T00:18:05.300Z,17.20
2018-07-17T00:20:34.679Z,17.30
2018-07-17T00:23:04.538Z,17.20
2018-07-17T00:25:35.088Z,17.10
2018-07-17T00:28:05.924Z,17.10
2018-07-17T00:30:35.036Z,17.20
2018-07-17T00:33:05.615Z,16.80
2018-07-17T00:35:35.050Z,16.70
2018-07-17T00:38:04.556Z,16.80
2018-07-17T00:40:37.881Z,16.80
2018-07-17T00:43:08.007Z,16.90
2018-07-17T00:45:38.248Z,16.80
2018-07-17T00:48:10.172Z,16.70
2018-07-17T00:50:39.116Z,16.70
2018-07-17T00:53:21.705Z,16.70
2018-07-17T00:55:53.148Z,16.60
2018-07-17T00:58:28.095Z,16.40
2018-07-17T01:00:56.780Z,16.40
2018-07-17T01:03:31.278Z,16.40
2018-07-17T01:06:05.828Z,16.30
2018-07-17T01:08:40.476Z,16.10
2018-07-17T01:11:17.152Z,16.20
2018-07-17T01:14:04.874Z,16.20
2018-07-17T01:16:33.731Z,16.30
2018-07-17T01:19:05.042Z,16.20
2018-07-17T01:24:05.152Z,16.20
2018-07-17T01:26:34.527Z,16.20
2018-07-17T01:29:03.854Z,16.20
2018-07-17T01:31:34.647Z,16.00
2018-07-17T01:34:05.134Z,15.80
2018-07-17T01:39:06.210Z,15.70
2018-07-17T01:44:06.351Z,15.70
2018-07-17T01:46:35.676Z,15.80
2018-07-17T01:49:06.187Z,15.60
2018-07-17T01:51:35.313Z,15.50
2018-07-17T01:54:04.410Z,15.40
2018-07-17T01:56:34.656Z,15.40
2018-07-17T01:59:06.380Z,15.60
2018-07-17T02:01:39.556Z,15.50
2018-07-17T02:04:09.274Z,15.50
2018-07-17T02:06:47.508Z,15.40
2018-07-17T02:09:18.532Z,15.40
2018-07-17T02:11:50.789Z,15.20
2018-07-17T02:14:19.895Z,15.20
2018-07-17T02:16:48.696Z,15.20
2018-07-17T02:19:18.062Z,15.00
2018-07-17T02:21:47.675Z,14.80
2018-07-17T02:24:17.155Z,14.70
2018-07-17T02:26:46.699Z,14.70
2018-07-17T02:29:21.516Z,14.60
2018-07-17T02:31:50.937Z,14.70
2018-07-17T02:34:20.409Z,15.00
2018-07-17T02:36:49.712Z,14.80
2018-07-17T02:39:20.154Z,14.70
2018-07-17T02:41:49.940Z,14.50
2018-07-17T02:44:21.602Z,14.40
2018-07-17T02:46:53.217Z,14.50
2018-07-17T02:49:23.949Z,14.60
2018-07-17T02:51:55.985Z,14.70
2018-07-17T02:56:54.157Z,14.90
2018-07-17T03:01:51.876Z,14.80
2018-07-17T03:04:21.237Z,14.80
2018-07-17T03:06:53.806Z,14.70
2018-07-17T03:09:25.504Z,14.60
2018-07-17T03:11:56.025Z,14.60
2018-07-17T03:14:26.279Z,14.70
2018-07-17T03:16:55.049Z,14.50
2018-07-17T03:19:24.259Z,14.50
2018-07-17T03:21:53.728Z,14.70
2018-07-17T03:24:23.013Z,14.60
2018-07-17T03:26:56.023Z,14.40
2018-07-17T03:29:31.781Z,14.50
2018-07-17T03:32:16.003Z,14.50
2018-07-17T03:34:45.346Z,14.60
2018-07-17T03:37:19.156Z,14.60
2018-07-17T03:39:58.378Z,14.70
2018-07-17T03:42:27.588Z,14.60
2018-07-17T03:44:57.059Z,14.60
2018-07-17T03:47:26.682Z,14.60
2018-07-17T03:49:57.343Z,14.60
2018-07-17T03:52:27.045Z,14.50
2018-07-17T03:54:56.017Z,14.30
2018-07-17T03:57:25.769Z,14.20
2018-07-17T03:59:55.292Z,14.00
2018-07-17T04:02:24.660Z,14.20
2018-07-17T04:04:55.070Z,14.40
2018-07-17T04:07:26.512Z,14.30
2018-07-17T04:09:55.362Z,14.30
2018-07-17T04:12:25.380Z,14.30
2018-07-17T04:14:54.527Z,14.20
2018-07-17T04:17:24.215Z,14.20
2018-07-17T04:19:53.694Z,14.20
2018-07-17T04:22:23.360Z,14.30
2018-07-17T04:24:54.013Z,14.30
2018-07-17T04:27:23.884Z,14.20
2018-07-17T04:29:53.288Z,14.20
2018-07-17T04:32:22.333Z,14.20
2018-07-17T04:34:51.572Z,14.40
2018-07-17T04:37:20.512Z,14.40
2018-07-17T04:39:52.172Z,14.40
2018-07-17T04:42:27.333Z,14.40
2018-07-17T04:44:58.372Z,14.40
2018-07-17T04:47:30.408Z,14.30
2018-07-17T04:49:59.404Z,14.40
2018-07-17T04:52:29.703Z,14.40
2018-07-17T04:54:59.201Z,14.40
2018-07-17T04:57:28.200Z,14.40
2018-07-17T04:59:57.469Z,14.40
2018-07-17T05:04:57.466Z,14.40
2018-07-17T05:07:26.792Z,14.40
2018-07-17T05:09:56.465Z,14.40
2018-07-17T05:12:25.586Z,14.50
2018-07-17T05:14:54.802Z,14.50
2018-07-17T05:17:28.572Z,14.60
2018-07-17T05:19:57.907Z,14.60
2018-07-17T05:22:27.906Z,14.70
2018-07-17T05:24:57.519Z,14.80
2018-07-17T05:27:27.389Z,14.80
2018-07-17T05:29:56.580Z,14.90
2018-07-17T05:32:25.949Z,15.00
2018-07-17T05:34:56.097Z,15.10
2018-07-17T05:37:27.051Z,15.20
2018-07-17T05:39:59.852Z,15.20
2018-07-17T05:42:29.569Z,15.20
2018-07-17T05:44:58.840Z,15.50
2018-07-17T05:47:28.022Z,15.50
2018-07-17T05:49:57.110Z,15.60
2018-07-17T05:52:28.420Z,15.80
2018-07-17T05:54:57.800Z,16.20
2018-07-17T05:57:29.118Z,16.50
2018-07-17T06:00:00.928Z,16.50
2018-07-17T06:02:30.219Z,16.50
2018-07-17T06:05:00.036Z,16.40
2018-07-17T06:07:29.708Z,16.30
2018-07-17T06:09:59.081Z,16.20
2018-07-17T06:14:58.958Z,16.10
2018-07-17T06:17:31.619Z,16.20
2018-07-17T06:20:02.886Z,16.30
2018-07-17T06:22:32.009Z,16.40
2018-07-17T06:25:01.394Z,16.50
2018-07-17T06:27:32.497Z,16.60
2018-07-17T06:35:03.312Z,16.70
2018-07-17T06:37:33.444Z,16.80
2018-07-17T06:40:02.427Z,16.90
2018-07-17T06:42:31.244Z,17.00
2018-07-17T06:45:00.063Z,17.00
2018-07-17T06:47:29.416Z,17.10
2018-07-17T06:49:58.959Z,17.10
2018-07-17T06:54:59.534Z,17.10
2018-07-17T06:57:32.341Z,17.20
2018-07-17T07:00:01.631Z,17.20
2018-07-17T07:02:31.191Z,17.40
2018-07-17T07:05:01.048Z,17.40
2018-07-17T07:07:30.460Z,17.50
2018-07-17T07:10:04.177Z,17.60
2018-07-17T07:12:35.861Z,17.60
2018-07-17T07:15:05.083Z,17.80
2018-07-17T07:17:35.649Z,17.90
2018-07-17T07:20:05.278Z,17.90
2018-07-17T07:22:34.427Z,17.90
2018-07-17T07:25:03.708Z,18.00
2018-07-17T07:27:33.813Z,17.90
2018-07-17T07:30:04.955Z,18.00
2018-07-17T07:32:34.633Z,18.10
2018-07-17T07:35:03.561Z,18.00
2018-07-17T07:37:32.579Z,18.10
2018-07-17T07:40:02.533Z,18.10
2018-07-17T07:42:33.608Z,18.40
2018-07-17T07:47:43.332Z,18.60
2018-07-17T07:50:14.155Z,18.80
2018-07-17T07:52:44.155Z,18.90
2018-07-17T07:55:14.303Z,19.00
2018-07-17T07:57:43.964Z,19.20
2018-07-17T08:00:13.890Z,19.20
2018-07-17T08:02:43.107Z,19.30
2018-07-17T08:07:45.119Z,19.60
2018-07-17T08:10:14.513Z,19.80
2018-07-17T08:12:44.108Z,20.10
2018-07-17T08:15:12.881Z,20.10
2018-07-17T08:17:42.705Z,19.90
2018-07-17T08:20:15.709Z,19.90
2018-07-17T08:22:46.005Z,19.90
2018-07-17T08:25:16.271Z,19.90
2018-07-17T08:27:48.296Z,19.80
2018-07-17T08:30:17.142Z,19.90
2018-07-17T08:32:46.127Z,20.10
2018-07-17T08:35:15.089Z,20.00
2018-07-17T08:37:44.209Z,20.00
2018-07-17T08:40:14.180Z,20.00
2018-07-17T08:42:44.502Z,20.10
2018-07-17T08:47:42.684Z,19.90
2018-07-17T08:50:12.532Z,20.10
2018-07-17T08:52:42.160Z,20.10
2018-07-17T08:55:11.149Z,20.20
2018-07-17T08:57:42.856Z,20.30
2018-07-17T09:00:12.462Z,20.30
2018-07-17T09:02:41.740Z,20.40
2018-07-17T09:05:10.781Z,20.50
2018-07-17T09:07:39.904Z,20.60
2018-07-17T09:10:09.451Z,20.90
2018-07-17T09:12:40.991Z,21.20
2018-07-17T09:15:13.369Z,21.40
2018-07-17T09:17:45.316Z,21.50
2018-07-17T09:20:14.281Z,21.70
2018-07-17T09:22:43.894Z,21.80
2018-07-17T09:25:13.136Z,22.00
2018-07-17T09:27:42.675Z,22.10
2018-07-17T09:30:13.817Z,22.00
2018-07-17T09:32:43.145Z,21.80
2018-07-17T09:35:14.713Z,21.70
2018-07-17T09:37:49.056Z,21.80
2018-07-17T09:40:21.864Z,21.70
2018-07-17T09:42:51.129Z,21.90
2018-07-17T09:45:20.550Z,21.90
2018-07-17T09:47:49.457Z,21.80
2018-07-17T09:50:18.700Z,21.70
2018-07-17T09:52:49.596Z,21.70
2018-07-17T09:55:19.589Z,21.60
2018-07-17T09:57:49.286Z,21.90
2018-07-17T10:00:24.137Z,21.90
2018-07-17T10:02:57.424Z,22.00
2018-07-17T10:05:29.736Z,22.20
2018-07-17T10:07:58.608Z,22.20
2018-07-17T10:10:27.845Z,21.90
2018-07-17T10:12:56.937Z,21.60
2018-07-17T10:15:27.199Z,21.50
2018-07-17T10:17:56.129Z,21.30
2018-07-17T10:20:27.011Z,21.30
2018-07-17T10:22:56.935Z,21.20
2018-07-17T10:25:27.092Z,21.20
2018-07-17T10:27:56.785Z,21.10
2018-07-17T10:30:25.908Z,21.00
2018-07-17T10:32:56.020Z,21.10
2018-07-17T10:35:25.241Z,21.30
2018-07-17T10:37:56.854Z,21.40
2018-07-17T10:40:27.441Z,21.40
2018-07-17T10:42:56.777Z,21.30
2018-07-17T10:45:25.796Z,21.40
2018-07-17T10:47:55.584Z,21.30
2018-07-17T10:50:25.360Z,21.20
2018-07-17T10:52:55.810Z,21.10
2018-07-17T10:55:26.135Z,20.90
2018-07-17T10:57:57.287Z,20.90
2018-07-17T11:00:26.296Z,20.80
2018-07-17T11:02:55.848Z,20.80
2018-07-17T11:05:25.084Z,20.80
2018-07-17T11:07:53.932Z,20.80
2018-07-17T11:10:23.480Z,20.90
2018-07-17T11:12:55.445Z,21.00
2018-07-17T11:15:26.339Z,21.10
2018-07-17T11:17:56.083Z,21.30
2018-07-17T11:20:25.531Z,21.30
2018-07-17T11:22:54.788Z,21.30
2018-07-17T11:25:23.952Z,21.50
2018-07-17T11:27:53.387Z,21.30
2018-07-17T11:30:29.848Z,21.30
2018-07-17T11:33:00.199Z,21.30
2018-07-17T11:35:30.350Z,21.40
2018-07-17T11:38:02.319Z,21.40
2018-07-17T11:40:31.840Z,21.60
2018-07-17T11:43:01.475Z,21.80
2018-07-17T11:45:30.337Z,22.10
2018-07-17T11:47:59.504Z,22.60
2018-07-17T11:50:30.025Z,22.90
2018-07-17T11:53:01.248Z,22.70
2018-07-17T11:55:30.211Z,22.50
2018-07-17T11:57:59.414Z,22.20
2018-07-17T12:00:29.980Z,22.10
2018-07-17T12:03:01.591Z,22.10
2018-07-17T12:05:31.091Z,22.10
2018-07-17T12:08:01.681Z,22.20
2018-07-17T12:10:35.126Z,22.30
2018-07-17T12:13:06.543Z,22.30
2018-07-17T12:15:38.131Z,22.30
2018-07-17T12:18:07.220Z,22.30
2018-07-17T12:20:36.709Z,22.40
2018-07-17T12:23:05.999Z,22.40
2018-07-17T12:25:35.253Z,22.50
2018-07-17T12:28:07.382Z,22.40
2018-07-17T12:33:06.340Z,22.50
2018-07-17T12:35:35.440Z,22.20
2018-07-17T12:38:04.329Z,22.10
2018-07-17T12:40:33.472Z,22.00
2018-07-17T12:43:02.688Z,22.00
2018-07-17T12:45:34.114Z,22.00
2018-07-17T12:48:03.196Z,22.00
2018-07-17T12:50:32.544Z,22.00
2018-07-17T12:53:01.364Z,22.20
2018-07-17T12:55:30.436Z,22.20
2018-07-17T12:58:00.356Z,22.30
2018-07-17T13:00:29.846Z,22.40
2018-07-17T13:03:00.520Z,22.30
2018-07-17T13:05:29.591Z,22.50
2018-07-17T13:07:58.657Z,22.90
2018-07-17T13:12:56.667Z,23.40
2018-07-17T13:15:26.392Z,23.50
2018-07-17T13:17:56.201Z,23.50
2018-07-17T13:20:25.846Z,23.40
2018-07-17T13:22:55.893Z,23.40
2018-07-17T13:25:25.759Z,23.20
2018-07-17T13:27:55.719Z,23.20
2018-07-17T13:30:24.936Z,23.20
2018-07-17T13:32:54.145Z,23.10
2018-07-17T13:37:55.592Z,23.00
2018-07-17T13:40:25.194Z,22.80
2018-07-17T13:42:54.224Z,22.80
2018-07-17T13:45:23.511Z,22.90
2018-07-17T13:47:53.181Z,23.10
2018-07-17T13:50:22.875Z,23.30
2018-07-17T13:53:00.185Z,23.30
2018-07-17T13:55:29.757Z,23.40
2018-07-17T13:57:59.222Z,23.60
2018-07-17T14:00:28.587Z,23.60
2018-07-17T14:02:58.568Z,23.50
2018-07-17T14:05:27.719Z,23.50
2018-07-17T14:07:57.411Z,23.40
2018-07-17T14:10:27.094Z,23.30
2018-07-17T14:12:57.717Z,23.40
2018-07-17T14:15:27.605Z,23.50
2018-07-17T14:17:56.685Z,23.50
2018-07-17T14:20:29.641Z,23.40
2018-07-17T14:22:58.580Z,23.30
2018-07-17T14:28:04.794Z,22.90
2018-07-17T14:30:34.508Z,22.90
2018-07-17T14:33:03.809Z,22.80
2018-07-17T14:35:32.939Z,22.90
2018-07-17T14:38:03.999Z,22.80
2018-07-17T14:40:33.938Z,23.00
2018-07-17T14:43:16.476Z,22.90
2018-07-17T14:45:46.436Z,22.90
2018-07-17T14:48:20.243Z,22.80
2018-07-17T14:50:49.865Z,22.80
2018-07-17T14:53:18.668Z,22.80
2018-07-17T14:55:47.484Z,22.80
2018-07-17T14:58:17.508Z,22.70
2018-07-17T15:00:46.897Z,22.70
2018-07-17T15:05:46.126Z,22.90
2018-07-17T15:08:16.613Z,23.10
2018-07-17T15:10:45.770Z,23.10
2018-07-17T15:13:15.863Z,23.30
2018-07-17T15:15:45.238Z,23.40
2018-07-17T15:18:14.844Z,23.20
2018-07-17T15:23:14.470Z,23.10
2018-07-17T15:25:45.312Z,22.90
2018-07-17T15:28:15.135Z,22.80
2018-07-17T15:30:44.182Z,22.80
2018-07-17T15:33:13.152Z,22.70
2018-07-17T15:35:42.831Z,22.70
2018-07-17T15:38:12.803Z,22.60
2018-07-17T15:40:45.729Z,22.60
2018-07-17T15:43:16.339Z,22.50
2018-07-17T15:45:45.647Z,22.40
2018-07-17T15:48:15.092Z,22.40
2018-07-17T15:50:44.909Z,22.40
2018-07-17T15:53:18.515Z,22.20
2018-07-17T15:55:47.696Z,22.20
2018-07-17T15:58:16.914Z,22.20
2018-07-17T16:00:48.173Z,22.20
2018-07-17T16:03:17.939Z,22.20
2018-07-17T16:05:48.029Z,22.20
2018-07-17T16:08:17.320Z,22.20
2018-07-17T16:10:46.807Z,22.30
2018-07-17T16:13:17.560Z,22.40
2018-07-17T16:15:47.331Z,22.40
2018-07-17T16:18:16.543Z,22.40
2018-07-17T16:20:45.525Z,22.50
2018-07-17T16:23:14.566Z,22.60
2018-07-17T16:25:43.782Z,22.70
2018-07-17T16:30:44.296Z,22.80
2018-07-17T16:33:13.448Z,22.80
2018-07-17T16:35:43.773Z,22.80
2018-07-17T16:38:13.015Z,22.70
2018-07-17T16:40:42.829Z,22.50
2018-07-17T16:43:13.969Z,22.40
2018-07-17T16:45:43.618Z,22.20
2018-07-17T16:48:13.083Z,22.20
2018-07-17T16:50:46.069Z,22.10
2018-07-17T16:53:16.487Z,22.20
2018-07-17T16:55:45.767Z,22.50
2018-07-17T16:58:15.305Z,22.70
2018-07-17T17:00:44.526Z,22.90
2018-07-17T17:03:13.761Z,22.80
2018-07-17T17:05:42.793Z,22.80
2018-07-17T17:08:14.897Z,22.60
2018-07-17T17:10:46.990Z,22.50
2018-07-17T17:13:16.829Z,22.40
2018-07-17T17:15:46.176Z,22.30
2018-07-17T17:18:15.376Z,22.20
2018-07-17T17:20:44.949Z,22.10
2018-07-17T17:23:14.417Z,22.00
2018-07-17T17:25:45.076Z,21.90
2018-07-17T17:28:16.727Z,21.90
2018-07-17T17:30:45.960Z,21.90
2018-07-17T17:33:16.392Z,21.80
2018-07-17T17:35:46.025Z,21.80
2018-07-17T17:38:15.474Z,21.80
2018-07-17T17:40:45.170Z,21.90
2018-07-17T17:43:15.618Z,21.90
2018-07-17T17:45:49.316Z,21.90
2018-07-17T17:48:20.780Z,21.80
2018-07-17T17:50:50.196Z,21.70
2018-07-17T17:53:19.681Z,21.70
2018-07-17T17:55:50.192Z,21.70
2018-07-17T17:58:19.720Z,21.70
2018-07-17T18:00:48.956Z,21.60
2018-07-17T18:03:20.811Z,21.60
2018-07-17T18:05:50.466Z,21.60
2018-07-17T18:08:20.208Z,21.50
2018-07-17T18:10:50.759Z,21.50
2018-07-17T18:13:19.659Z,21.40
2018-07-17T18:18:20.667Z,21.40
2018-07-17T18:20:51.868Z,21.40
2018-07-17T18:23:21.659Z,21.40
2018-07-17T18:25:51.836Z,21.30
2018-07-17T18:28:22.245Z,21.30
2018-07-17T18:30:51.425Z,21.30
2018-07-17T18:33:21.648Z,21.30
2018-07-17T18:35:51.905Z,21.30
2018-07-17T18:38:25.216Z,21.10
2018-07-17T18:40:57.497Z,21.00
2018-07-17T18:43:27.107Z,21.00
2018-07-17T18:45:56.508Z,21.00
2018-07-17T18:48:26.384Z,21.00
2018-07-17T18:50:55.521Z,21.00
2018-07-17T18:53:24.343Z,21.00
2018-07-17T18:55:54.745Z,20.90
2018-07-17T18:58:27.681Z,20.90
2018-07-17T19:00:57.215Z,20.90
2018-07-17T19:03:26.482Z,20.80
2018-07-17T19:05:56.503Z,20.70
2018-07-17T19:08:25.714Z,20.70
2018-07-17T19:10:54.815Z,20.80
2018-07-17T19:13:28.588Z,20.70
2018-07-17T19:15:58.891Z,20.70
2018-07-17T19:18:28.635Z,20.70
2018-07-17T19:21:06.567Z,20.60
2018-07-17T19:23:35.668Z,20.60
2018-07-17T19:26:04.643Z,20.50
2018-07-17T19:28:33.549Z,20.50
2018-07-17T19:31:02.397Z,20.40
2018-07-17T19:33:33.021Z,20.40
2018-07-17T19:36:05.628Z,20.40
2018-07-17T19:38:37.606Z,20.30
2018-07-17T19:41:07.331Z,20.30
2018-07-17T19:43:36.743Z,20.20
2018-07-17T19:46:06.465Z,20.20
2018-07-17T19:48:35.382Z,20.10
2018-07-17T19:51:05.716Z,20.10
2018-07-17T19:53:37.029Z,20.00
2018-07-17T19:56:06.806Z,19.90
2018-07-17T19:58:36.095Z,19.90
2018-07-17T20:01:06.436Z,19.90
2018-07-17T20:03:35.612Z,19.80
2018-07-17T20:06:04.560Z,19.80
2018-07-17T20:08:34.416Z,19.70
2018-07-17T20:11:07.681Z,19.70
2018-07-17T20:13:38.177Z,19.80
2018-07-17T20:16:12.054Z,19.70
2018-07-17T20:18:41.464Z,19.70
2018-07-17T20:21:16.111Z,19.60
2018-07-17T20:23:45.426Z,19.60
2018-07-17T20:26:14.687Z,19.60
2018-07-17T20:28:44.221Z,19.60
2018-07-17T20:31:13.253Z,19.60
2018-07-17T20:33:44.781Z,19.50
2018-07-17T20:36:17.241Z,19.50
2018-07-17T20:38:47.682Z,19.50
2018-07-17T20:41:16.911Z,19.40
2018-07-17T20:43:46.191Z,19.40
2018-07-17T20:46:17.548Z,19.40
2018-07-17T20:48:47.208Z,19.40
2018-07-17T20:51:19.176Z,19.30
2018-07-17T20:53:49.118Z,19.30
2018-07-17T20:56:17.896Z,19.30
2018-07-17T20:58:46.861Z,19.30
2018-07-17T21:01:16.004Z,19.20
2018-07-17T21:03:44.832Z,19.10
2018-07-17T21:06:18.078Z,19.10
2018-07-17T21:08:47.845Z,19.10
2018-07-17T21:11:17.059Z,19.00
2018-07-17T21:13:46.263Z,19.00
2018-07-17T21:16:15.396Z,19.00
2018-07-17T21:18:44.896Z,18.90
2018-07-17T21:21:14.501Z,18.90
2018-07-17T21:23:45.827Z,18.90
2018-07-17T21:26:15.693Z,18.80
2018-07-17T21:28:44.593Z,18.80
2018-07-17T21:31:14.444Z,18.70
2018-07-17T21:33:43.517Z,18.80
2018-07-17T21:36:12.588Z,18.70
2018-07-17T21:38:42.768Z,18.70
2018-07-17T21:41:14.680Z,18.60
2018-07-17T21:43:46.603Z,18.60
2018-07-17T21:46:15.805Z,18.60
2018-07-17T21:48:49.344Z,18.60
2018-07-17T21:51:18.680Z,18.50
2018-07-17T21:53:48.022Z,18.50
2018-07-17T21:56:17.905Z,18.40
2018-07-17T21:58:48.178Z,18.40
2018-07-17T22:01:20.661Z,18.40
2018-07-17T22:03:53.458Z,18.40
2018-07-17T22:06:22.649Z,18.30
2018-07-17T22:09:10.027Z,18.40
2018-07-17T22:11:40.607Z,18.30
2018-07-17T22:14:11.853Z,18.30
2018-07-17T22:16:41.895Z,18.20
2018-07-17T22:19:10.947Z,18.20
2018-07-17T22:21:44.632Z,18.20
2018-07-17T22:24:13.900Z,18.10
2018-07-17T22:26:43.518Z,18.20
2018-07-17T22:29:16.305Z,18.10
2018-07-17T22:31:48.167Z,18.10
2018-07-17T22:34:18.808Z,18.10
2018-07-17T22:36:48.198Z,18.10
2018-07-17T22:39:17.077Z,18.10
2018-07-17T22:41:46.596Z,18.00
2018-07-17T22:44:15.824Z,17.90
2018-07-17T22:46:44.985Z,17.90
2018-07-17T22:49:20.732Z,17.80
2018-07-17T22:51:53.413Z,17.70
2018-07-17T22:54:24.317Z,17.60
2018-07-17T22:56:53.732Z,17.70
2018-07-17T22:59:23.868Z,17.70
2018-07-17T23:01:52.772Z,17.70
2018-07-17T23:04:26.244Z,17.40
2018-07-17T23:06:55.037Z,17.40
2018-07-17T23:09:25.463Z,17.40
2018-07-17T23:11:57.576Z,17.50
2018-07-17T23:17:03.825Z,17.20
2018-07-17T23:19:32.901Z,17.00
2018-07-17T23:22:02.931Z,16.80
2018-07-17T23:24:32.390Z,17.00
2018-07-17T23:27:01.628Z,17.10
2018-07-17T23:29:32.398Z,16.80
2018-07-17T23:32:04.240Z,16.80
2018-07-17T23:34:37.554Z,16.50
2018-07-17T23:37:07.019Z,16.50
2018-07-17T23:39:37.149Z,16.50
2018-07-17T23:42:06.338Z,16.40
2018-07-17T23:44:35.276Z,16.30
2018-07-17T23:47:04.554Z,16.20
2018-07-17T23:49:37.763Z,16.20
2018-07-17T23:52:09.532Z,16.20
2018-07-17T23:54:43.608Z,16.20
2018-07-17T23:57:15.330Z,16.10
